sensor_id;sensor_type;location;lat;lon;timestamp;pressure;altitude;pressure_sealevel;temperature;humidity
5296;BME280;2670;42.720;23.336;2022-09-03T00:00:53;-22935.09;;;16.99;100.00
5296;BME280;2670;42.720;23.336;2022-09-03T00:03:24;-22935.97;;;17.02;100.00
5296;BME280;2670;42.720;23.336;2022-09-03T00:06:02;-22936.84;;;17.05;100.00
5296;BME280;2670;42.720;23.336;2022-09-03T00:08:34;-22934.50;;;16.97;100.00
5296;BME280;2670;42.720;23.336;2022-09-03T00:11:10;-22933.63;;;16.93;100.00
5296;BME280;2670;42.720;23.336;2022-09-03T00:13:43;-22932.88;;;16.91;100.00
5296;BME280;2670;42.720;23.336;2022-09-03T00:16:14;-22934.06;;;16.95;100.00
5296;BME280;2670;42.720;23.336;2022-09-03T00:18:49;-22932.00;;;16.88;100.00
5296;BME280;2670;42.720;23.336;2022-09-03T00:21:33;-22931.41;;;16.86;100.00
5296;BME280;2670;42.720;23.336;2022-09-03T00:24:04;-22929.94;;;16.81;100.00
5296;BME280;2670;42.720;23.336;2022-09-03T00:26:34;-22933.47;;;16.93;100.00
5296;BME280;2670;42.720;23.336;2022-09-03T00:29:08;-22933.91;;;16.95;100.00
5296;BME280;2670;42.720;23.336;2022-09-03T00:31:39;-22933.91;;;16.95;100.00
5296;BME280;2670;42.720;23.336;2022-09-03T00:34:12;-22929.34;;;16.79;100.00
5296;BME280;2670;42.720;23.336;2022-09-03T00:36:42;-22928.47;;;16.76;100.00
5296;BME280;2670;42.720;23.336;2022-09-03T00:39:11;-22931.84;;;16.87;100.00
5296;BME280;2670;42.720;23.336;2022-09-03T00:41:47;-22928.31;;;16.75;100.00
5296;BME280;2670;42.720;23.336;2022-09-03T00:44:39;-22929.78;;;16.80;100.00
5296;BME280;2670;42.720;23.336;2022-09-03T00:47:13;-22929.66;;;16.80;100.00
5296;BME280;2670;42.720;23.336;2022-09-03T00:49:50;-22930.38;;;16.82;100.00
5296;BME280;2670;42.720;23.336;2022-09-03T00:52:30;-22931.28;;;16.85;100.00
5296;BME280;2670;42.720;23.336;2022-09-03T00:55:07;-22928.78;;;16.77;100.00
5296;BME280;2670;42.720;23.336;2022-09-03T00:57:46;-22929.66;;;16.80;100.00
5296;BME280;2670;42.720;23.336;2022-09-03T01:00:18;-22930.69;;;16.83;100.00
5296;BME280;2670;42.720;23.336;2022-09-03T01:02:55;-22929.66;;;16.80;100.00
5296;BME280;2670;42.720;23.336;2022-09-03T01:05:32;-22929.22;;;16.78;100.00
5296;BME280;2670;42.720;23.336;2022-09-03T01:08:08;-22927.75;;;16.73;100.00
5296;BME280;2670;42.720;23.336;2022-09-03T01:10:47;-22929.06;;;16.78;100.00
5296;BME280;2670;42.720;23.336;2022-09-03T01:13:20;-22927.59;;;16.73;100.00
5296;BME280;2670;42.720;23.336;2022-09-03T01:15:55;-22924.66;;;16.62;100.00
5296;BME280;2670;42.720;23.336;2022-09-03T01:18:31;-22929.94;;;16.81;100.00
5296;BME280;2670;42.720;23.336;2022-09-03T01:21:17;-22928.91;;;16.77;100.00
5296;BME280;2670;42.720;23.336;2022-09-03T01:24:13;-22926.84;;;16.70;100.00
5296;BME280;2670;42.720;23.336;2022-09-03T01:27:08;-22926.28;;;16.68;100.00
5296;BME280;2670;42.720;23.336;2022-09-03T01:29:46;-22926.28;;;16.68;100.00
5296;BME280;2670;42.720;23.336;2022-09-03T01:32:26;-22922.44;;;16.55;100.00
5296;BME280;2670;42.720;23.336;2022-09-03T01:35:12;-22923.63;;;16.59;100.00
5296;BME280;2670;42.720;23.336;2022-09-03T01:37:52;-22924.66;;;16.62;100.00
5296;BME280;2670;42.720;23.336;2022-09-03T01:40:28;-22923.75;;;16.59;100.00
5296;BME280;2670;42.720;23.336;2022-09-03T01:43:06;-22924.34;;;16.61;100.00
5296;BME280;2670;42.720;23.336;2022-09-03T01:45:48;-22924.94;;;16.63;100.00
5296;BME280;2670;42.720;23.336;2022-09-03T01:48:37;-22923.03;;;16.57;100.00
5296;BME280;2670;42.720;23.336;2022-09-03T01:51:13;-22924.50;;;16.62;100.00
5296;BME280;2670;42.720;23.336;2022-09-03T01:54:20;-22924.06;;;16.60;100.00
5296;BME280;2670;42.720;23.336;2022-09-03T01:57:04;-22922.28;;;16.54;100.00
5296;BME280;2670;42.720;23.336;2022-09-03T01:59:39;-22925.38;;;16.65;100.00
5296;BME280;2670;42.720;23.336;2022-09-03T02:02:15;-22925.69;;;16.66;100.00
5296;BME280;2670;42.720;23.336;2022-09-03T02:04:55;-22920.38;;;16.48;100.00
5296;BME280;2670;42.720;23.336;2022-09-03T02:07:26;-22921.25;;;16.51;100.00
5296;BME280;2670;42.720;23.336;2022-09-03T02:09:58;-22924.94;;;16.63;100.00
5296;BME280;2670;42.720;23.336;2022-09-03T02:12:26;-22921.72;;;16.52;100.00
5296;BME280;2670;42.720;23.336;2022-09-03T02:14:57;-22923.75;;;16.59;100.00
5296;BME280;2670;42.720;23.336;2022-09-03T02:17:25;-22921.41;;;16.51;100.00
5296;BME280;2670;42.720;23.336;2022-09-03T02:19:53;-22920.09;;;16.47;100.00
5296;BME280;2670;42.720;23.336;2022-09-03T02:22:20;-22923.31;;;16.58;100.00
5296;BME280;2670;42.720;23.336;2022-09-03T02:24:47;-22924.22;;;16.61;100.00
5296;BME280;2670;42.720;23.336;2022-09-03T02:27:14;-22920.09;;;16.47;100.00
5296;BME280;2670;42.720;23.336;2022-09-03T02:29:41;-22918.63;;;16.41;100.00
5296;BME280;2670;42.720;23.336;2022-09-03T02:32:08;-22920.38;;;16.48;100.00
5296;BME280;2670;42.720;23.336;2022-09-03T02:34:36;-22920.25;;;16.47;100.00
5296;BME280;2670;42.720;23.336;2022-09-03T02:37:11;-22917.88;;;16.39;100.00
5296;BME280;2670;42.720;23.336;2022-09-03T02:39:38;-22919.94;;;16.46;100.00
5296;BME280;2670;42.720;23.336;2022-09-03T02:42:06;-22919.34;;;16.44;100.00
5296;BME280;2670;42.720;23.336;2022-09-03T02:44:34;-22919.34;;;16.44;100.00
5296;BME280;2670;42.720;23.336;2022-09-03T02:47:04;-22916.72;;;16.35;100.00
5296;BME280;2670;42.720;23.336;2022-09-03T02:49:31;-22918.63;;;16.41;100.00
5296;BME280;2670;42.720;23.336;2022-09-03T02:52:02;-22918.31;;;16.40;100.00
5296;BME280;2670;42.720;23.336;2022-09-03T02:54:30;-22922.00;;;16.53;100.00
5296;BME280;2670;42.720;23.336;2022-09-03T02:57:00;-22919.66;;;16.45;100.00
5296;BME280;2670;42.720;23.336;2022-09-03T02:59:27;-22917.44;;;16.37;100.00
5296;BME280;2670;42.720;23.336;2022-09-03T03:01:54;-22916.25;;;16.33;100.00
5296;BME280;2670;42.720;23.336;2022-09-03T03:04:21;-22920.38;;;16.48;100.00
5296;BME280;2670;42.720;23.336;2022-09-03T03:06:48;-22919.66;;;16.45;100.00
5296;BME280;2670;42.720;23.336;2022-09-03T03:09:16;-22918.31;;;16.40;100.00
5296;BME280;2670;42.720;23.336;2022-09-03T03:11:44;-22918.63;;;16.41;100.00
5296;BME280;2670;42.720;23.336;2022-09-03T03:14:11;-22914.78;;;16.28;100.00
5296;BME280;2670;42.720;23.336;2022-09-03T03:16:38;-22918.19;;;16.40;100.00
5296;BME280;2670;42.720;23.336;2022-09-03T03:19:05;-22917.16;;;16.36;100.00
5296;BME280;2670;42.720;23.336;2022-09-03T03:21:31;-22919.34;;;16.44;100.00
5296;BME280;2670;42.720;23.336;2022-09-03T03:24:00;-22920.69;;;16.49;100.00
5296;BME280;2670;42.720;23.336;2022-09-03T03:26:28;-22918.63;;;16.41;100.00
5296;BME280;2670;42.720;23.336;2022-09-03T03:28:56;-22923.91;;;16.60;100.00
5296;BME280;2670;42.720;23.336;2022-09-03T03:31:23;-22916.84;;;16.35;100.00
5296;BME280;2670;42.720;23.336;2022-09-03T03:33:52;-22918.31;;;16.40;100.00
5296;BME280;2670;42.720;23.336;2022-09-03T03:36:19;-22920.69;;;16.49;100.00
5296;BME280;2670;42.720;23.336;2022-09-03T03:38:46;-22917.59;;;16.38;100.00
5296;BME280;2670;42.720;23.336;2022-09-03T03:41:14;-22916.41;;;16.34;100.00
5296;BME280;2670;42.720;23.336;2022-09-03T03:43:43;-22917.88;;;16.39;100.00
5296;BME280;2670;42.720;23.336;2022-09-03T03:46:11;-22918.75;;;16.42;100.00
5296;BME280;2670;42.720;23.336;2022-09-03T03:48:38;-22920.09;;;16.47;100.00
5296;BME280;2670;42.720;23.336;2022-09-03T03:51:07;-22918.19;;;16.40;100.00
5296;BME280;2670;42.720;23.336;2022-09-03T03:53:35;-22919.22;;;16.43;100.00
5296;BME280;2670;42.720;23.336;2022-09-03T03:56:04;-22921.72;;;16.52;100.00
5296;BME280;2670;42.720;23.336;2022-09-03T03:58:33;-22918.91;;;16.42;100.00
5296;BME280;2670;42.720;23.336;2022-09-03T04:01:05;-22915.97;;;16.32;100.00
5296;BME280;2670;42.720;23.336;2022-09-03T04:03:32;-22919.06;;;16.43;100.00
5296;BME280;2670;42.720;23.336;2022-09-03T04:05:59;-22916.56;;;16.34;100.00
5296;BME280;2670;42.720;23.336;2022-09-03T04:08:27;-22918.47;;;16.41;100.00
5296;BME280;2670;42.720;23.336;2022-09-03T04:10:58;-22918.63;;;16.41;100.00
5296;BME280;2670;42.720;23.336;2022-09-03T04:13:27;-22920.53;;;16.48;100.00
5296;BME280;2670;42.720;23.336;2022-09-03T04:15:59;-22922.59;;;16.55;100.00
5296;BME280;2670;42.720;23.336;2022-09-03T04:18:27;-22919.06;;;16.43;100.00
5296;BME280;2670;42.720;23.336;2022-09-03T04:20:58;-22919.50;;;16.44;100.00
5296;BME280;2670;42.720;23.336;2022-09-03T04:23:25;-22916.25;;;16.33;100.00
5296;BME280;2670;42.720;23.336;2022-09-03T04:25:53;-22917.44;;;16.37;100.00
5296;BME280;2670;42.720;23.336;2022-09-03T04:28:20;-22920.38;;;16.48;100.00
5296;BME280;2670;42.720;23.336;2022-09-03T04:30:46;-22918.75;;;16.42;100.00
5296;BME280;2670;42.720;23.336;2022-09-03T04:33:14;-22914.06;;;16.26;100.00
5296;BME280;2670;42.720;23.336;2022-09-03T04:35:42;-22914.22;;;16.26;100.00
5296;BME280;2670;42.720;23.336;2022-09-03T04:38:08;-22917.44;;;16.37;100.00
5296;BME280;2670;42.720;23.336;2022-09-03T04:40:35;-22918.75;;;16.42;100.00
5296;BME280;2670;42.720;23.336;2022-09-03T04:43:03;-22915.38;;;16.30;100.00
5296;BME280;2670;42.720;23.336;2022-09-03T04:45:30;-22913.91;;;16.25;100.00
5296;BME280;2670;42.720;23.336;2022-09-03T04:47:58;-22915.38;;;16.30;100.00
5296;BME280;2670;42.720;23.336;2022-09-03T04:50:25;-22918.75;;;16.42;100.00
5296;BME280;2670;42.720;23.336;2022-09-03T04:52:54;-22917.44;;;16.37;100.00
5296;BME280;2670;42.720;23.336;2022-09-03T04:55:23;-22915.38;;;16.30;100.00
5296;BME280;2670;42.720;23.336;2022-09-03T04:57:50;-22917.00;;;16.36;100.00
5296;BME280;2670;42.720;23.336;2022-09-03T05:00:17;-22916.72;;;16.35;100.00
5296;BME280;2670;42.720;23.336;2022-09-03T05:02:44;-22916.56;;;16.34;100.00
5296;BME280;2670;42.720;23.336;2022-09-03T05:05:14;-22913.03;;;16.22;100.00
5296;BME280;2670;42.720;23.336;2022-09-03T05:07:40;-22914.06;;;16.26;100.00
5296;BME280;2670;42.720;23.336;2022-09-03T05:10:11;-22910.53;;;16.13;100.00
5296;BME280;2670;42.720;23.336;2022-09-03T05:12:41;-22909.06;;;16.08;100.00
5296;BME280;2670;42.720;23.336;2022-09-03T05:15:08;-22910.81;;;16.14;100.00
5296;BME280;2670;42.720;23.336;2022-09-03T05:17:35;-22909.50;;;16.10;100.00
5296;BME280;2670;42.720;23.336;2022-09-03T05:20:03;-22909.34;;;16.09;100.00
5296;BME280;2670;42.720;23.336;2022-09-03T05:22:30;-22909.94;;;16.11;100.00
5296;BME280;2670;42.720;23.336;2022-09-03T05:24:57;-22911.25;;;16.16;100.00
5296;BME280;2670;42.720;23.336;2022-09-03T05:27:25;-22913.03;;;16.22;100.00
5296;BME280;2670;42.720;23.336;2022-09-03T05:29:52;-22911.56;;;16.17;100.00
5296;BME280;2670;42.720;23.336;2022-09-03T05:32:18;-22914.22;;;16.26;100.00
5296;BME280;2670;42.720;23.336;2022-09-03T05:34:45;-22910.53;;;16.13;100.00
5296;BME280;2670;42.720;23.336;2022-09-03T05:37:12;-22912.72;;;16.21;100.00
5296;BME280;2670;42.720;23.336;2022-09-03T05:39:38;-22914.66;;;16.28;100.00
5296;BME280;2670;42.720;23.336;2022-09-03T05:42:05;-22916.56;;;16.34;100.00
5296;BME280;2670;42.720;23.336;2022-09-03T05:44:33;-22917.28;;;16.37;100.00
5296;BME280;2670;42.720;23.336;2022-09-03T05:47:01;-22920.09;;;16.47;100.00
5296;BME280;2670;42.720;23.336;2022-09-03T05:49:28;-22919.34;;;16.44;100.00
5296;BME280;2670;42.720;23.336;2022-09-03T05:51:55;-22919.06;;;16.43;100.00
5296;BME280;2670;42.720;23.336;2022-09-03T05:54:22;-22922.44;;;16.55;100.00
5296;BME280;2670;42.720;23.336;2022-09-03T05:56:48;-22922.16;;;16.54;100.00
5296;BME280;2670;42.720;23.336;2022-09-03T05:59:15;-22919.66;;;16.45;100.00
5296;BME280;2670;42.720;23.336;2022-09-03T06:01:44;-22922.44;;;16.55;100.00
5296;BME280;2670;42.720;23.336;2022-09-03T06:04:13;-22922.16;;;16.54;100.00
5296;BME280;2670;42.720;23.336;2022-09-03T06:06:41;-22917.44;;;16.37;100.00
5296;BME280;2670;42.720;23.336;2022-09-03T06:09:10;-22921.13;;;16.50;100.00
5296;BME280;2670;42.720;23.336;2022-09-03T06:11:39;-22923.63;;;16.59;100.00
5296;BME280;2670;42.720;23.336;2022-09-03T06:14:08;-22923.19;;;16.57;100.00
5296;BME280;2670;42.720;23.336;2022-09-03T06:16:37;-22926.41;;;16.68;100.00
5296;BME280;2670;42.720;23.336;2022-09-03T06:19:06;-22928.91;;;16.77;100.00
5296;BME280;2670;42.720;23.336;2022-09-03T06:21:34;-22932.75;;;16.90;100.00
5296;BME280;2670;42.720;23.336;2022-09-03T06:24:02;-22931.28;;;16.85;100.00
5296;BME280;2670;42.720;23.336;2022-09-03T06:26:29;-22933.31;;;16.92;100.00
5296;BME280;2670;42.720;23.336;2022-09-03T06:28:56;-22935.69;;;17.01;100.00
5296;BME280;2670;42.720;23.336;2022-09-03T06:31:24;-22938.47;;;17.10;100.00
5296;BME280;2670;42.720;23.336;2022-09-03T06:33:51;-22936.56;;;17.04;100.00
5296;BME280;2670;42.720;23.336;2022-09-03T06:36:22;-22937.44;;;17.07;100.00
5296;BME280;2670;42.720;23.336;2022-09-03T06:38:51;-22940.38;;;17.17;100.00
5296;BME280;2670;42.720;23.336;2022-09-03T06:41:20;-22938.75;;;17.11;100.00
5296;BME280;2670;42.720;23.336;2022-09-03T06:43:50;-22940.53;;;17.17;100.00
5296;BME280;2670;42.720;23.336;2022-09-03T06:46:19;-22939.66;;;17.14;100.00
5296;BME280;2670;42.720;23.336;2022-09-03T06:48:46;-22940.09;;;17.16;100.00
5296;BME280;2670;42.720;23.336;2022-09-03T06:51:14;-22940.81;;;17.18;100.00
5296;BME280;2670;42.720;23.336;2022-09-03T06:53:44;-22939.34;;;17.13;100.00
5296;BME280;2670;42.720;23.336;2022-09-03T06:56:13;-22943.63;;;17.28;100.00
5296;BME280;2670;42.720;23.336;2022-09-03T06:58:42;-22944.19;;;17.30;100.00
5296;BME280;2670;42.720;23.336;2022-09-03T07:01:11;-22947.44;;;17.41;100.00
5296;BME280;2670;42.720;23.336;2022-09-03T07:03:40;-22949.78;;;17.50;100.00
5296;BME280;2670;42.720;23.336;2022-09-03T07:06:09;-22948.31;;;17.45;100.00
5296;BME280;2670;42.720;23.336;2022-09-03T07:08:36;-22949.78;;;17.50;100.00
5296;BME280;2670;42.720;23.336;2022-09-03T07:11:06;-22951.84;;;17.57;100.00
5296;BME280;2670;42.720;23.336;2022-09-03T07:13:35;-22948.03;;;17.43;100.00
5296;BME280;2670;42.720;23.336;2022-09-03T07:16:03;-22949.50;;;17.49;100.00
5296;BME280;2670;42.720;23.336;2022-09-03T07:18:31;-22950.81;;;17.53;100.00
5296;BME280;2670;42.720;23.336;2022-09-03T07:20:58;-22955.50;;;17.70;100.00
5296;BME280;2670;42.720;23.336;2022-09-03T07:23:26;-22956.84;;;17.74;100.00
5296;BME280;2670;42.720;23.336;2022-09-03T07:25:53;-22955.22;;;17.68;100.00
5296;BME280;2670;42.720;23.336;2022-09-03T07:28:22;-22955.81;;;17.71;100.00
5296;BME280;2670;42.720;23.336;2022-09-03T07:30:49;-22957.88;;;17.78;100.00
5296;BME280;2670;42.720;23.336;2022-09-03T07:33:16;-22958.59;;;17.80;100.00
5296;BME280;2670;42.720;23.336;2022-09-03T07:35:43;-22961.84;;;17.91;100.00
5296;BME280;2670;42.720;23.336;2022-09-03T07:38:10;-22964.31;;;18.00;100.00
5296;BME280;2670;42.720;23.336;2022-09-03T07:40:37;-22965.94;;;18.06;100.00
5296;BME280;2670;42.720;23.336;2022-09-03T07:43:04;-22970.94;;;18.23;100.00
5296;BME280;2670;42.720;23.336;2022-09-03T07:45:32;-22971.06;;;18.24;100.00
5296;BME280;2670;42.720;23.336;2022-09-03T07:47:59;-22974.00;;;18.34;100.00
5296;BME280;2670;42.720;23.336;2022-09-03T07:50:26;-22971.97;;;18.27;100.00
5296;BME280;2670;42.720;23.336;2022-09-03T07:52:55;-22971.97;;;18.27;100.00
5296;BME280;2670;42.720;23.336;2022-09-03T07:55:23;-22970.34;;;18.21;100.00
5296;BME280;2670;42.720;23.336;2022-09-03T07:57:54;-22976.81;;;18.44;100.00
5296;BME280;2670;42.720;23.336;2022-09-03T08:00:23;-22974.75;;;18.36;100.00
5296;BME280;2670;42.720;23.336;2022-09-03T08:02:51;-22976.50;;;18.42;100.00
5296;BME280;2670;42.720;23.336;2022-09-03T08:05:18;-22976.34;;;18.42;100.00
5296;BME280;2670;42.720;23.336;2022-09-03T08:07:46;-22980.47;;;18.56;100.00
5296;BME280;2670;42.720;23.336;2022-09-03T08:10:13;-22980.75;;;18.57;100.00
5296;BME280;2670;42.720;23.336;2022-09-03T08:12:40;-22981.94;;;18.61;100.00
5296;BME280;2670;42.720;23.336;2022-09-03T08:15:07;-22983.84;;;18.68;100.00
5296;BME280;2670;42.720;23.336;2022-09-03T08:17:34;-22981.34;;;18.59;100.00
5296;BME280;2670;42.720;23.336;2022-09-03T08:20:03;-22985.47;;;18.74;100.00
5296;BME280;2670;42.720;23.336;2022-09-03T08:22:30;-22985.91;;;18.75;100.00
5296;BME280;2670;42.720;23.336;2022-09-03T08:24:56;-22985.31;;;18.73;100.00
5296;BME280;2670;42.720;23.336;2022-09-03T08:27:24;-22985.00;;;18.72;100.00
5296;BME280;2670;42.720;23.336;2022-09-03T08:29:51;-22986.63;;;18.78;100.00
5296;BME280;2670;42.720;23.336;2022-09-03T08:32:18;-22990.28;;;18.90;100.00
5296;BME280;2670;42.720;23.336;2022-09-03T08:34:45;-22990.00;;;18.89;100.00
5296;BME280;2670;42.720;23.336;2022-09-03T08:37:13;-22990.16;;;18.90;100.00
5296;BME280;2670;42.720;23.336;2022-09-03T08:39:40;-22992.78;;;18.99;100.00
5296;BME280;2670;42.720;23.336;2022-09-03T08:42:18;-22992.50;;;18.98;100.00
5296;BME280;2670;42.720;23.336;2022-09-03T08:44:49;-22993.22;;;19.01;100.00
5296;BME280;2670;42.720;23.336;2022-09-03T08:47:21;-22994.69;;;19.06;100.00
5296;BME280;2670;42.720;23.336;2022-09-03T08:49:54;-22994.69;;;19.06;100.00
5296;BME280;2670;42.720;23.336;2022-09-03T08:52:27;-23001.00;;;19.28;100.00
5296;BME280;2670;42.720;23.336;2022-09-03T08:55:02;-23003.03;;;19.35;100.00
5296;BME280;2670;42.720;23.336;2022-09-03T08:57:31;-23005.38;;;19.43;100.00
5296;BME280;2670;42.720;23.336;2022-09-03T09:00:03;-23006.56;;;19.47;100.00
5296;BME280;2670;42.720;23.336;2022-09-03T09:02:35;-23004.06;;;19.38;100.00
5296;BME280;2670;42.720;23.336;2022-09-03T09:05:11;-23010.06;;;19.59;100.00
5296;BME280;2670;42.720;23.336;2022-09-03T09:07:49;-23009.19;;;19.56;100.00
5296;BME280;2670;42.720;23.336;2022-09-03T09:10:23;-23012.13;;;19.67;100.00
5296;BME280;2670;42.720;23.336;2022-09-03T09:13:02;-23011.69;;;19.65;100.00
5296;BME280;2670;42.720;23.336;2022-09-03T09:15:39;-23011.41;;;19.64;100.00
5296;BME280;2670;42.720;23.336;2022-09-03T09:18:15;-23014.78;;;19.76;100.00
5296;BME280;2670;42.720;23.336;2022-09-03T09:20:48;-23016.09;;;19.80;100.00
5296;BME280;2670;42.720;23.336;2022-09-03T09:23:23;-23021.34;;;19.99;100.00
5296;BME280;2670;42.720;23.336;2022-09-03T09:25:53;-23018.44;;;19.88;100.00
5296;BME280;2670;42.720;23.336;2022-09-03T09:28:23;-23024.28;;;20.09;100.00
5296;BME280;2670;42.720;23.336;2022-09-03T09:30:53;-23024.00;;;20.08;100.00
5296;BME280;2670;42.720;23.336;2022-09-03T09:33:21;-23025.75;;;20.14;100.00
5296;BME280;2670;42.720;23.336;2022-09-03T09:35:48;-23026.03;;;20.15;100.00
5296;BME280;2670;42.720;23.336;2022-09-03T09:38:29;-23026.19;;;20.15;100.00
5296;BME280;2670;42.720;23.336;2022-09-03T09:41:08;-23021.94;;;20.01;100.00
5296;BME280;2670;42.720;23.336;2022-09-03T09:43:35;-23024.44;;;20.09;100.00
5296;BME280;2670;42.720;23.336;2022-09-03T09:46:08;-23025.75;;;20.14;100.00
5296;BME280;2670;42.720;23.336;2022-09-03T09:48:37;-23024.28;;;20.09;100.00
5296;BME280;2670;42.720;23.336;2022-09-03T09:51:10;-23032.63;;;20.38;100.00
5296;BME280;2670;42.720;23.336;2022-09-03T09:53:38;-23034.22;;;20.44;100.00
5296;BME280;2670;42.720;23.336;2022-09-03T09:56:06;-23035.25;;;20.47;100.00
5296;BME280;2670;42.720;23.336;2022-09-03T09:58:34;-23042.13;;;20.71;100.00
5296;BME280;2670;42.720;23.336;2022-09-03T10:01:03;-23038.63;;;20.59;100.00
5296;BME280;2670;42.720;23.336;2022-09-03T10:03:39;-23040.81;;;20.67;100.00
5296;BME280;2670;42.720;23.336;2022-09-03T10:06:08;-23037.31;;;20.54;100.00
5296;BME280;2670;42.720;23.336;2022-09-03T10:09:06;-23045.78;;;20.84;100.00
5296;BME280;2670;42.720;23.336;2022-09-03T10:11:34;-23044.03;;;20.78;100.00
5296;BME280;2670;42.720;23.336;2022-09-03T10:14:04;-23048.88;;;20.95;100.00
5296;BME280;2670;42.720;23.336;2022-09-03T10:16:39;-23049.31;;;20.96;100.00
5296;BME280;2670;42.720;23.336;2022-09-03T10:19:14;-23055.88;;;21.19;100.00
5296;BME280;2670;42.720;23.336;2022-09-03T10:21:46;-23054.56;;;21.14;100.00
5296;BME280;2670;42.720;23.336;2022-09-03T10:24:29;-23054.28;;;21.13;100.00
5296;BME280;2670;42.720;23.336;2022-09-03T10:26:57;-23059.38;;;21.31;100.00
5296;BME280;2670;42.720;23.336;2022-09-03T10:29:24;-23063.34;;;21.45;100.00
5296;BME280;2670;42.720;23.336;2022-09-03T10:32:19;-23064.81;;;21.50;100.00
5296;BME280;2670;42.720;23.336;2022-09-03T10:34:57;-23065.25;;;21.52;100.00
5296;BME280;2670;42.720;23.336;2022-09-03T10:37:34;-23065.25;;;21.52;100.00
5296;BME280;2670;42.720;23.336;2022-09-03T10:40:13;-23067.28;;;21.59;100.00
5296;BME280;2670;42.720;23.336;2022-09-03T10:42:44;-23066.69;;;21.57;100.00
5296;BME280;2670;42.720;23.336;2022-09-03T10:45:17;-23065.97;;;21.54;100.00
5296;BME280;2670;42.720;23.336;2022-09-03T10:48:12;-23068.31;;;21.62;100.00
5296;BME280;2670;42.720;23.336;2022-09-03T10:50:46;-23065.81;;;21.54;100.00
5296;BME280;2670;42.720;23.336;2022-09-03T10:53:24;-23068.75;;;21.64;100.00
5296;BME280;2670;42.720;23.336;2022-09-03T10:56:00;-23071.81;;;21.75;100.00
5296;BME280;2670;42.720;23.336;2022-09-03T10:58:44;-23075.31;;;21.87;100.00
5296;BME280;2670;42.720;23.336;2022-09-03T11:01:21;-23075.03;;;21.86;100.00
5296;BME280;2670;42.720;23.336;2022-09-03T11:03:58;-23074.00;;;21.82;100.00
5296;BME280;2670;42.720;23.336;2022-09-03T11:06:37;-23079.69;;;22.02;100.00
5296;BME280;2670;42.720;23.336;2022-09-03T11:09:13;-23081.75;;;22.09;100.00
5296;BME280;2670;42.720;23.336;2022-09-03T11:11:46;-23078.81;;;21.99;100.00
5296;BME280;2670;42.720;23.336;2022-09-03T11:14:17;-23074.72;;;21.85;100.00
5296;BME280;2670;42.720;23.336;2022-09-03T11:16:54;-23081.44;;;22.08;100.00
5296;BME280;2670;42.720;23.336;2022-09-03T11:19:32;-23086.28;;;22.25;100.00
5296;BME280;2670;42.720;23.336;2022-09-03T11:21:59;-23091.09;;;22.42;100.00
5296;BME280;2670;42.720;23.336;2022-09-03T11:24:29;-23096.03;;;22.59;100.00
5296;BME280;2670;42.720;23.336;2022-09-03T11:27:04;-23095.31;;;22.57;100.00
5296;BME280;2670;42.720;23.336;2022-09-03T11:29:33;-23092.69;;;22.48;100.00
5296;BME280;2670;42.720;23.336;2022-09-03T11:32:07;-23089.34;;;22.36;100.00
5296;BME280;2670;42.720;23.336;2022-09-03T11:34:44;-23090.34;;;22.40;100.00
5296;BME280;2670;42.720;23.336;2022-09-03T11:37:20;-23100.72;;;22.76;100.00
5296;BME280;2670;42.720;23.336;2022-09-03T11:39:55;-23097.22;;;22.63;100.00
5296;BME280;2670;42.720;23.336;2022-09-03T11:42:28;-23098.09;;;22.67;100.00
5296;BME280;2670;42.720;23.336;2022-09-03T11:45:13;-23098.97;;;22.70;100.00
5296;BME280;2670;42.720;23.336;2022-09-03T11:47:45;-23094.88;;;22.55;100.00
5296;BME280;2670;42.720;23.336;2022-09-03T11:50:19;-23096.47;;;22.61;100.00
5296;BME280;2670;42.720;23.336;2022-09-03T11:52:47;-23099.13;;;22.70;100.00
5296;BME280;2670;42.720;23.336;2022-09-03T11:55:26;-23098.66;;;22.69;100.00
5296;BME280;2670;42.720;23.336;2022-09-03T11:57:57;-23101.28;;;22.78;100.00
5296;BME280;2670;42.720;23.336;2022-09-03T12:00:24;-23102.31;;;22.81;100.00
5296;BME280;2670;42.720;23.336;2022-09-03T12:02:55;-23102.91;;;22.83;100.00
5296;BME280;2670;42.720;23.336;2022-09-03T12:05:29;-23104.50;;;22.89;99.96
5296;BME280;2670;42.720;23.336;2022-09-03T12:08:33;-23099.41;;;22.71;100.00
5296;BME280;2670;42.720;23.336;2022-09-03T12:11:11;-23098.53;;;22.68;100.00
5296;BME280;2670;42.720;23.336;2022-09-03T12:13:51;-23100.28;;;22.74;100.00
5296;BME280;2670;42.720;23.336;2022-09-03T12:16:33;-23097.34;;;22.64;100.00
5296;BME280;2670;42.720;23.336;2022-09-03T12:19:05;-23098.22;;;22.67;100.00
5296;BME280;2670;42.720;23.336;2022-09-03T12:21:37;-23103.63;;;22.86;100.00
5296;BME280;2670;42.720;23.336;2022-09-03T12:24:04;-23102.31;;;22.81;100.00
5296;BME280;2670;42.720;23.336;2022-09-03T12:26:38;-23101.72;;;22.79;100.00
5296;BME280;2670;42.720;23.336;2022-09-03T12:29:19;-23102.75;;;22.83;100.00
5296;BME280;2670;42.720;23.336;2022-09-03T12:31:48;-23102.75;;;22.83;100.00
5296;BME280;2670;42.720;23.336;2022-09-03T12:34:17;-23105.53;;;22.93;100.00
5296;BME280;2670;42.720;23.336;2022-09-03T12:36:46;-23100.84;;;22.76;100.00
5296;BME280;2670;42.720;23.336;2022-09-03T12:39:15;-23101.00;;;22.77;100.00
5296;BME280;2670;42.720;23.336;2022-09-03T12:41:54;-23103.34;;;22.85;100.00
5296;BME280;2670;42.720;23.336;2022-09-03T12:44:25;-23109.19;;;23.05;100.00
5296;BME280;2670;42.720;23.336;2022-09-03T12:47:05;-23106.41;;;22.96;100.00
5296;BME280;2670;42.720;23.336;2022-09-03T12:49:36;-23104.81;;;22.90;100.00
5296;BME280;2670;42.720;23.336;2022-09-03T12:52:07;-23105.38;;;22.92;100.00
5296;BME280;2670;42.720;23.336;2022-09-03T12:54:41;-23109.03;;;23.05;100.00
5296;BME280;2670;42.720;23.336;2022-09-03T12:57:13;-23112.25;;;23.16;97.93
5296;BME280;2670;42.720;23.336;2022-09-03T12:59:46;-23110.19;;;23.09;100.00
5296;BME280;2670;42.720;23.336;2022-09-03T13:02:19;-23111.66;;;23.14;100.00
5296;BME280;2670;42.720;23.336;2022-09-03T13:04:47;-23115.75;;;23.28;97.79
5296;BME280;2670;42.720;23.336;2022-09-03T13:07:25;-23113.41;;;23.20;100.00
5296;BME280;2670;42.720;23.336;2022-09-03T13:09:59;-23118.34;;;23.38;98.23
5296;BME280;2670;42.720;23.336;2022-09-03T13:12:31;-23116.59;;;23.31;100.00